createdAt,value
2022-11-11T00:02:05.050Z,8.53
2022-11-11T00:04:33.134Z,8.60
2022-11-11T00:07:01.278Z,8.67
2022-11-11T00:09:29.565Z,7.83
2022-11-11T00:11:59.024Z,7.07
2022-11-11T00:14:27.084Z,6.73
2022-11-11T00:17:12.783Z,8.73
2022-11-11T00:19:58.200Z,7.60
2022-11-11T00:22:43.792Z,6.97
2022-11-11T00:25:14.749Z,7.37
2022-11-11T00:27:44.354Z,6.97
2022-11-11T00:30:12.674Z,6.50
2022-11-11T00:32:40.847Z,6.43
2022-11-11T00:35:27.238Z,6.27
2022-11-11T00:37:55.361Z,8.70
2022-11-11T00:40:23.442Z,7.67
2022-11-11T00:42:52.915Z,12.40
2022-11-11T00:45:21.036Z,11.80
2022-11-11T00:48:06.683Z,12.33
2022-11-11T00:50:52.224Z,11.63
2022-11-11T00:53:26.270Z,10.03
2022-11-11T00:55:56.235Z,9.93
2022-11-11T00:58:28.457Z,8.93
2022-11-11T01:00:56.953Z,8.20
2022-11-11T01:03:25.211Z,7.40
2022-11-11T01:05:53.322Z,3.87
2022-11-11T01:08:21.779Z,4.23
2022-11-11T01:10:50.405Z,3.20
2022-11-11T01:13:21.222Z,3.27
2022-11-11T01:15:52.923Z,2.70
2022-11-11T01:18:23.795Z,2.63
2022-11-11T01:21:00.733Z,4.30
2022-11-11T01:23:29.634Z,5.97
2022-11-11T01:26:04.349Z,5.57
2022-11-11T01:28:33.190Z,6.07
2022-11-11T01:31:07.698Z,9.53
2022-11-11T01:33:36.455Z,9.63
2022-11-11T01:36:09.488Z,10.43
2022-11-11T01:38:38.252Z,7.87
2022-11-11T01:41:22.096Z,7.23
2022-11-11T01:43:50.293Z,7.20
2022-11-11T01:46:28.883Z,12.73
2022-11-11T01:49:20.432Z,7.83
2022-11-11T01:51:55.939Z,6.33
2022-11-11T01:54:31.166Z,5.67
2022-11-11T01:57:05.091Z,5.83
2022-11-11T01:59:35.401Z,7.00
2022-11-11T02:02:10.269Z,6.33
2022-11-11T02:04:56.490Z,6.27
2022-11-11T02:07:25.517Z,7.37
2022-11-11T02:09:55.285Z,7.67
2022-11-11T02:12:42.890Z,7.10
2022-11-11T02:15:13.260Z,7.27
2022-11-11T02:17:43.157Z,6.70
2022-11-11T02:20:15.434Z,6.77
2022-11-11T02:22:50.273Z,6.63
2022-11-11T02:25:23.301Z,7.27
2022-11-11T02:27:54.183Z,6.57
2022-11-11T02:30:23.014Z,6.03
2022-11-11T02:32:53.261Z,6.07
2022-11-11T02:35:24.248Z,5.57
2022-11-11T02:37:54.200Z,4.77
2022-11-11T02:40:28.610Z,3.33
2022-11-11T02:42:55.932Z,5.07
2022-11-11T02:45:24.319Z,4.93
2022-11-11T02:47:52.603Z,4.13
2022-11-11T02:50:20.898Z,2.97
2022-11-11T02:52:49.045Z,2.40
2022-11-11T02:55:17.182Z,2.20
2022-11-11T02:57:46.888Z,2.17
2022-11-11T03:00:16.914Z,2.70
2022-11-11T03:02:45.461Z,2.50
2022-11-11T03:05:14.242Z,2.67
2022-11-11T03:07:42.629Z,2.47
2022-11-11T03:10:11.714Z,2.40
2022-11-11T03:12:39.990Z,2.67
2022-11-11T03:15:11.515Z,2.70
2022-11-11T03:17:42.010Z,3.43
2022-11-11T03:20:29.263Z,3.20
2022-11-11T03:23:05.365Z,2.70
2022-11-11T03:25:38.857Z,3.00
2022-11-11T03:28:07.222Z,2.87
2022-11-11T03:30:37.667Z,3.27
2022-11-11T03:33:06.167Z,2.90
2022-11-11T03:35:34.304Z,2.97
2022-11-11T03:38:16.710Z,2.70
2022-11-11T03:40:45.312Z,2.57
2022-11-11T03:43:14.187Z,2.33
2022-11-11T03:45:44.257Z,2.67
2022-11-11T03:48:14.221Z,2.60
2022-11-11T03:50:42.480Z,2.60
2022-11-11T03:53:10.665Z,2.23
2022-11-11T03:55:38.768Z,1.97
2022-11-11T03:58:06.850Z,2.50
2022-11-11T04:00:35.835Z,2.13
2022-11-11T04:03:25.265Z,2.60
2022-11-11T04:06:23.128Z,3.43
2022-11-11T04:09:09.132Z,2.40
2022-11-11T04:11:41.084Z,2.97
2022-11-11T04:14:29.529Z,3.00
2022-11-11T04:16:57.902Z,4.80
2022-11-11T04:19:44.877Z,4.40
2022-11-11T04:22:12.966Z,6.10
2022-11-11T04:24:58.465Z,5.17
2022-11-11T04:27:26.526Z,5.47
2022-11-11T04:29:53.620Z,3.57
2022-11-11T04:32:39.902Z,2.87
2022-11-11T04:35:12.199Z,3.67
2022-11-11T04:37:47.637Z,3.30
2022-11-11T04:40:33.977Z,3.10
2022-11-11T04:43:02.010Z,3.20
2022-11-11T04:45:31.196Z,3.70
2022-11-11T04:48:01.677Z,3.40
2022-11-11T04:50:33.078Z,3.37
2022-11-11T04:53:01.745Z,3.60
2022-11-11T04:55:47.787Z,3.43
2022-11-11T04:58:16.810Z,3.03
2022-11-11T05:00:44.944Z,2.87
2022-11-11T05:03:16.231Z,3.00
2022-11-11T05:06:04.733Z,3.70
2022-11-11T05:08:50.761Z,2.93
2022-11-11T05:11:19.286Z,2.60
2022-11-11T05:14:05.253Z,2.93
2022-11-11T05:16:53.071Z,3.17
2022-11-11T05:19:38.750Z,3.33
2022-11-11T05:22:14.298Z,3.50
2022-11-11T05:24:59.860Z,6.07
2022-11-11T05:27:28.194Z,4.27
2022-11-11T05:29:56.516Z,3.93
2022-11-11T05:32:25.379Z,3.43
2022-11-11T05:34:53.704Z,3.20
2022-11-11T05:37:23.715Z,3.00
2022-11-11T05:39:51.952Z,4.20
2022-11-11T05:42:20.166Z,3.37
2022-11-11T05:44:48.439Z,3.47
2022-11-11T05:47:16.655Z,3.47
2022-11-11T05:49:45.251Z,3.60
2022-11-11T05:52:16.315Z,3.20
2022-11-11T05:54:45.926Z,3.40
2022-11-11T05:57:14.360Z,3.30
2022-11-11T05:59:42.440Z,2.83
2022-11-11T06:02:10.929Z,2.50
2022-11-11T06:04:39.039Z,2.80
2022-11-11T06:07:07.287Z,2.50
2022-11-11T06:09:35.428Z,2.77
2022-11-11T06:12:05.171Z,2.73
2022-11-11T06:14:33.217Z,3.33
2022-11-11T06:17:01.323Z,2.80
2022-11-11T06:19:29.403Z,3.10
2022-11-11T06:22:01.894Z,3.30
2022-11-11T06:24:30.046Z,3.40
2022-11-11T06:26:57.172Z,3.27
2022-11-11T06:29:26.733Z,3.10
2022-11-11T06:31:54.852Z,3.30
2022-11-11T06:34:22.969Z,4.10
2022-11-11T06:36:51.477Z,4.07
2022-11-11T06:39:19.583Z,4.30
2022-11-11T06:41:47.627Z,4.30
2022-11-11T06:44:15.691Z,3.73
2022-11-11T06:46:45.130Z,3.57
2022-11-11T06:49:13.241Z,3.00
2022-11-11T06:51:41.322Z,2.47
2022-11-11T06:54:09.451Z,3.03
2022-11-11T06:56:37.528Z,2.50
2022-11-11T06:59:05.625Z,3.27
2022-11-11T07:01:33.747Z,3.03
2022-11-11T07:04:03.246Z,3.13
2022-11-11T07:06:31.395Z,2.90
2022-11-11T07:08:59.627Z,3.00
2022-11-11T07:11:27.716Z,2.93
2022-11-11T07:13:55.898Z,2.90
2022-11-11T07:16:23.975Z,3.23
2022-11-11T07:18:52.075Z,3.00
2022-11-11T07:21:21.523Z,3.30
2022-11-11T07:23:49.596Z,4.70
2022-11-11T07:26:17.687Z,3.40
2022-11-11T07:28:45.787Z,3.30
2022-11-11T07:31:13.896Z,3.40
2022-11-11T07:33:41.991Z,3.17
2022-11-11T07:36:10.217Z,2.90
2022-11-11T07:38:39.712Z,3.10
2022-11-11T07:41:07.762Z,3.10
2022-11-11T07:43:35.845Z,3.00
2022-11-11T07:46:03.979Z,3.20
2022-11-11T07:48:32.085Z,10.93
2022-11-11T07:51:00.705Z,9.23
2022-11-11T07:53:29.153Z,52.97
2022-11-11T07:55:58.655Z,10.40
2022-11-11T07:58:27.186Z,5.03
2022-11-11T08:00:55.607Z,3.53
2022-11-11T08:03:23.930Z,3.40
2022-11-11T08:05:52.184Z,3.33
2022-11-11T08:08:25.490Z,3.63
2022-11-11T08:10:55.840Z,3.20
2022-11-11T08:13:43.563Z,3.43
2022-11-11T08:16:12.695Z,3.30
2022-11-11T08:18:40.802Z,3.30
2022-11-11T08:21:09.505Z,2.90
2022-11-11T08:26:29.551Z,2.70
2022-11-11T08:28:59.495Z,2.67
2022-11-11T08:31:27.713Z,2.67
2022-11-11T08:33:55.850Z,2.90
2022-11-11T08:36:25.404Z,2.70
2022-11-11T08:38:54.137Z,2.53
2022-11-11T08:41:23.727Z,2.77
2022-11-11T08:43:53.402Z,2.77
2022-11-11T08:46:23.498Z,2.33
2022-11-11T08:48:51.701Z,2.47
2022-11-11T08:51:19.875Z,3.23
2022-11-11T08:53:48.291Z,3.10
2022-11-11T08:56:16.364Z,4.10
2022-11-11T08:58:44.568Z,4.57
2022-11-11T09:01:13.689Z,3.13
2022-11-11T09:03:46.198Z,3.23
2022-11-11T09:06:14.617Z,4.80
2022-11-11T09:08:44.224Z,3.87
2022-11-11T09:11:12.603Z,3.50
2022-11-11T09:13:41.780Z,3.60
2022-11-11T09:16:10.413Z,4.73
2022-11-11T09:18:38.657Z,5.43
2022-11-11T09:21:08.412Z,5.00
2022-11-11T09:23:36.552Z,3.93
2022-11-11T09:26:05.259Z,3.37
2022-11-11T09:28:34.441Z,3.40
2022-11-11T09:33:51.547Z,3.00
2022-11-11T09:36:21.807Z,2.53
2022-11-11T09:38:49.889Z,2.77
2022-11-11T09:41:23.123Z,2.80
2022-11-11T09:43:57.374Z,2.60
2022-11-11T09:46:35.838Z,2.73
2022-11-11T09:49:29.558Z,2.70
2022-11-11T09:52:04.138Z,2.77
2022-11-11T09:54:38.399Z,2.60
2022-11-11T09:57:15.912Z,2.73
2022-11-11T09:59:48.667Z,2.30
2022-11-11T10:02:23.708Z,2.63
2022-11-11T10:04:58.495Z,2.50
2022-11-11T10:07:36.991Z,2.77
2022-11-11T10:10:19.361Z,2.50
2022-11-11T10:12:54.183Z,35.03
2022-11-11T10:15:23.209Z,4.73
2022-11-11T10:18:05.463Z,3.30
2022-11-11T10:20:37.958Z,2.50
2022-11-11T10:23:16.059Z,2.60
2022-11-11T10:25:50.425Z,2.70
2022-11-11T10:28:21.291Z,2.77
2022-11-11T10:30:52.312Z,3.23
2022-11-11T10:33:24.164Z,3.33
2022-11-11T10:35:54.220Z,3.10
2022-11-11T10:38:38.588Z,3.40
2022-11-11T10:41:15.439Z,2.93
2022-11-11T10:43:46.521Z,3.23
2022-11-11T10:46:21.307Z,2.73
2022-11-11T10:48:56.552Z,2.60
2022-11-11T10:51:27.684Z,2.60
2022-11-11T10:54:04.998Z,3.17
2022-11-11T10:56:37.998Z,3.30
2022-11-11T10:59:14.473Z,3.00
2022-11-11T11:01:49.662Z,3.10
2022-11-11T11:04:25.251Z,3.50
2022-11-11T11:06:55.789Z,3.20
2022-11-11T11:09:30.709Z,3.13
2022-11-11T11:12:04.352Z,3.10
2022-11-11T11:14:37.604Z,2.90
2022-11-11T11:17:11.814Z,3.23
2022-11-11T11:19:39.892Z,2.97
2022-11-11T11:22:08.093Z,3.00
2022-11-11T11:24:43.684Z,2.73
2022-11-11T11:27:12.336Z,2.47
2022-11-11T11:29:42.468Z,2.30
2022-11-11T11:32:18.958Z,2.30
2022-11-11T11:34:50.084Z,2.47
2022-11-11T11:37:19.926Z,2.20
2022-11-11T11:39:50.070Z,2.20
2022-11-11T11:42:39.720Z,2.30
2022-11-11T11:45:22.203Z,2.70
2022-11-11T11:48:30.029Z,2.57
2022-11-11T11:50:54.068Z,2.60
2022-11-11T11:53:35.302Z,1.90
2022-11-11T11:56:16.302Z,2.30
2022-11-11T11:58:57.100Z,2.40
2022-11-11T12:01:34.521Z,2.03
2022-11-11T12:04:26.196Z,1.90
2022-11-11T12:07:05.067Z,2.70
2022-11-11T12:09:42.457Z,2.60
2022-11-11T12:12:22.907Z,2.53
2022-11-11T12:15:06.880Z,2.40
2022-11-11T12:17:43.496Z,2.77
2022-11-11T12:20:19.048Z,2.60
2022-11-11T12:23:09.088Z,2.80
2022-11-11T12:25:50.121Z,3.30
2022-11-11T12:28:27.881Z,4.10
2022-11-11T12:31:11.722Z,4.93
2022-11-11T12:34:02.560Z,4.90
2022-11-11T12:36:38.469Z,5.17
2022-11-11T12:39:12.426Z,5.37
2022-11-11T12:41:54.707Z,5.73
2022-11-11T12:44:34.352Z,5.87
2022-11-11T12:47:34.455Z,6.20
2022-11-11T12:50:14.403Z,6.60
2022-11-11T12:52:53.383Z,6.83
2022-11-11T12:55:27.702Z,6.87
2022-11-11T12:58:22.587Z,7.73
2022-11-11T13:01:09.186Z,7.33
2022-11-11T13:03:53.732Z,7.07
2022-11-11T13:06:36.662Z,7.57
2022-11-11T13:09:33.955Z,8.30
2022-11-11T13:12:08.856Z,8.83
2022-11-11T13:15:07.113Z,9.23
2022-11-11T13:17:36.964Z,10.63
2022-11-11T13:20:15.328Z,10.60
2022-11-11T13:22:43.484Z,10.90
2022-11-11T13:25:19.575Z,11.60
2022-11-11T13:27:54.522Z,12.40
2022-11-11T13:30:51.084Z,11.90
2022-11-11T13:33:24.518Z,12.23
2022-11-11T13:35:56.374Z,12.73
2022-11-11T13:38:31.269Z,13.00
2022-11-11T13:41:02.064Z,11.93
2022-11-11T13:43:34.319Z,13.33
2022-11-11T13:46:05.392Z,12.13
2022-11-11T13:48:37.921Z,13.30
2022-11-11T13:51:26.077Z,13.57
2022-11-11T13:53:54.772Z,13.53
2022-11-11T13:56:29.279Z,14.60
2022-11-11T13:58:58.866Z,14.63
2022-11-11T14:01:41.492Z,14.87
2022-11-11T14:04:12.511Z,15.03
2022-11-11T14:06:58.297Z,15.37
2022-11-11T14:09:58.889Z,15.33
2022-11-11T14:12:41.706Z,19.03
2022-11-11T14:15:35.389Z,20.47
2022-11-11T14:18:04.661Z,16.87
2022-11-11T14:20:40.471Z,15.40
2022-11-11T14:23:26.541Z,14.83
2022-11-11T14:26:25.949Z,12.87
2022-11-11T14:28:57.030Z,13.97
2022-11-11T14:32:07.933Z,13.73
2022-11-11T14:34:49.188Z,12.47
2022-11-11T14:37:39.256Z,12.43
2022-11-11T14:40:11.549Z,11.30
2022-11-11T14:42:47.101Z,13.07
2022-11-11T14:46:01.652Z,14.37
2022-11-11T14:48:53.100Z,14.30
2022-11-11T14:51:40.954Z,13.27
2022-11-11T14:54:23.023Z,13.00
2022-11-11T14:57:03.559Z,13.73
2022-11-11T14:59:33.809Z,12.30
2022-11-11T15:02:03.006Z,13.73
2022-11-11T15:04:39.003Z,12.23
2022-11-11T15:07:16.152Z,10.50
2022-11-11T15:10:08.156Z,11.90
2022-11-11T15:12:50.169Z,11.57
2022-11-11T15:15:25.687Z,10.73
2022-11-11T15:18:08.952Z,9.43
2022-11-11T15:20:51.150Z,9.43
2022-11-11T15:23:28.623Z,10.30
2022-11-11T15:26:07.868Z,8.60
2022-11-11T15:29:07.008Z,10.00
2022-11-11T15:31:42.368Z,8.93
2022-11-11T15:34:28.206Z,11.33
2022-11-11T15:36:59.550Z,10.37
2022-11-11T15:39:37.479Z,10.30
2022-11-11T15:42:12.267Z,11.70
2022-11-11T15:44:40.440Z,11.57
2022-11-11T15:47:13.292Z,10.57
2022-11-11T15:49:43.079Z,8.67
2022-11-11T15:52:32.232Z,8.37
2022-11-11T15:55:01.608Z,8.17
2022-11-11T15:57:32.581Z,9.67
2022-11-11T16:00:02.772Z,11.27
2022-11-11T16:02:33.909Z,10.10
2022-11-11T16:05:04.936Z,8.57
2022-11-11T16:07:38.222Z,9.83
2022-11-11T16:10:11.062Z,10.37
2022-11-11T16:12:46.827Z,10.40
2022-11-11T16:15:22.212Z,16.33
2022-11-11T16:17:52.241Z,16.77
2022-11-11T16:20:27.042Z,11.83
2022-11-11T16:23:00.514Z,11.00
2022-11-11T16:25:29.942Z,10.00
2022-11-11T16:27:59.607Z,9.07
2022-11-11T16:30:33.856Z,7.77
2022-11-11T16:33:02.332Z,8.90
2022-11-11T16:35:33.850Z,8.63
2022-11-11T16:38:04.024Z,8.80
2022-11-11T16:40:45.032Z,8.97
2022-11-11T16:43:26.416Z,8.23
2022-11-11T16:45:59.361Z,12.77
2022-11-11T16:48:43.100Z,12.27
2022-11-11T16:51:14.683Z,8.43
2022-11-11T16:53:46.612Z,8.50
2022-11-11T16:56:22.798Z,8.93
2022-11-11T16:59:03.106Z,8.97
2022-11-11T17:01:31.948Z,8.47
2022-11-11T17:04:00.863Z,9.80
2022-11-11T17:06:49.424Z,8.53
2022-11-11T17:09:39.026Z,9.83
2022-11-11T17:12:08.640Z,7.93
2022-11-11T17:14:39.866Z,8.90
2022-11-11T17:17:11.057Z,14.00
2022-11-11T17:19:39.279Z,10.20
2022-11-11T17:22:09.734Z,10.30
2022-11-11T17:24:38.022Z,8.83
2022-11-11T17:27:06.702Z,9.83
2022-11-11T17:29:38.651Z,9.03
2022-11-11T17:32:08.697Z,8.87
2022-11-11T17:34:36.851Z,8.50
2022-11-11T17:37:04.891Z,7.43
2022-11-11T17:39:33.050Z,7.47
2022-11-11T17:42:01.099Z,7.90
2022-11-11T17:44:29.266Z,7.23
2022-11-11T17:46:57.425Z,7.03
2022-11-11T17:49:55.256Z,6.90
2022-11-11T17:52:16.154Z,7.50
2022-11-11T17:54:44.327Z,7.80
2022-11-11T17:57:12.612Z,11.03
2022-11-11T17:59:40.702Z,9.90
2022-11-11T18:02:09.604Z,7.80
2022-11-11T18:04:39.125Z,7.40
2022-11-11T18:07:07.302Z,6.87
2022-11-11T18:09:35.501Z,7.50
2022-11-11T18:12:03.626Z,8.23
2022-11-11T18:14:31.732Z,7.97
2022-11-11T18:16:59.749Z,8.00
2022-11-11T18:19:27.819Z,9.73
2022-11-11T18:21:57.223Z,9.43
2022-11-11T18:24:25.266Z,8.57
2022-11-11T18:26:53.307Z,9.13
2022-11-11T18:29:21.388Z,9.93
2022-11-11T18:31:54.766Z,10.43
2022-11-11T18:34:24.316Z,8.43
2022-11-11T18:36:52.722Z,9.17
2022-11-11T18:39:22.333Z,10.17
2022-11-11T18:41:50.374Z,11.13
2022-11-11T18:44:18.426Z,11.77
2022-11-11T18:46:46.478Z,10.30
2022-11-11T18:49:15.562Z,10.50
2022-11-11T18:51:44.043Z,8.50
2022-11-11T18:54:12.151Z,8.10
2022-11-11T18:56:41.608Z,8.43
2022-11-11T18:59:09.891Z,10.37
2022-11-11T19:01:40.720Z,10.20
2022-11-11T19:04:10.594Z,9.97
2022-11-11T19:06:40.484Z,11.03
2022-11-11T19:09:11.459Z,11.07
2022-11-11T19:11:42.510Z,10.00
2022-11-11T19:14:11.468Z,9.47
2022-11-11T19:16:40.330Z,9.83
2022-11-11T19:19:08.528Z,9.90
2022-11-11T19:21:39.022Z,9.20
2022-11-11T19:24:09.479Z,9.60
2022-11-11T19:26:37.729Z,11.53
2022-11-11T19:29:07.149Z,10.73
2022-11-11T19:31:35.285Z,9.93
2022-11-11T19:34:03.519Z,11.33
2022-11-11T19:36:32.245Z,12.97
2022-11-11T19:39:02.017Z,11.77
2022-11-11T19:41:32.365Z,12.37
2022-11-11T19:44:00.523Z,11.60
2022-11-11T19:46:31.216Z,18.00
2022-11-11T19:49:00.539Z,13.77
2022-11-11T19:51:29.834Z,16.73
2022-11-11T19:53:58.443Z,16.23
2022-11-11T19:56:31.015Z,15.27
2022-11-11T19:58:59.696Z,17.57
2022-11-11T20:01:29.697Z,18.10
2022-11-11T20:03:58.935Z,17.63
2022-11-11T20:06:29.275Z,16.00
2022-11-11T20:09:00.005Z,14.47
2022-11-11T20:11:28.544Z,14.63
2022-11-11T20:13:57.736Z,14.33
2022-11-11T20:16:26.592Z,12.93
2022-11-11T20:18:57.157Z,13.57
2022-11-11T20:21:25.922Z,13.73
2022-11-11T20:23:54.778Z,14.57
2022-11-11T20:26:23.553Z,14.23
2022-11-11T20:28:57.027Z,13.23
2022-11-11T20:31:26.034Z,13.87
2022-11-11T20:33:54.149Z,14.13
2022-11-11T20:36:24.332Z,12.67
2022-11-11T20:38:52.413Z,14.80
2022-11-11T20:41:21.163Z,13.90
2022-11-11T20:43:49.424Z,16.53
2022-11-11T20:46:19.440Z,18.63
2022-11-11T20:48:50.117Z,17.40
2022-11-11T20:51:19.642Z,14.50
2022-11-11T20:53:52.884Z,13.17
2022-11-11T20:56:24.223Z,15.03
2022-11-11T20:58:53.331Z,13.23
2022-11-11T21:01:23.233Z,13.43
2022-11-11T21:03:55.318Z,12.83
2022-11-11T21:06:24.008Z,14.30
2022-11-11T21:08:54.246Z,12.17
2022-11-11T21:11:23.675Z,12.40
2022-11-11T21:13:54.943Z,13.30
2022-11-11T21:16:25.420Z,13.93
2022-11-11T21:18:54.208Z,10.70
2022-11-11T21:21:24.092Z,12.10
2022-11-11T21:23:58.333Z,11.13
2022-11-11T21:26:27.238Z,12.93
2022-11-11T21:28:55.791Z,10.73
2022-11-11T21:31:25.211Z,12.20
2022-11-11T21:33:54.361Z,13.80
2022-11-11T21:36:23.383Z,12.57
2022-11-11T21:38:52.432Z,11.20
2022-11-11T21:41:23.844Z,11.20
2022-11-11T21:43:52.278Z,11.20
2022-11-11T21:46:23.243Z,10.03
2022-11-11T21:48:52.706Z,10.10
2022-11-11T21:51:23.169Z,9.87
2022-11-11T21:53:55.547Z,9.20
2022-11-11T21:56:29.070Z,9.60
2022-11-11T21:58:58.661Z,10.40
2022-11-11T22:01:30.328Z,10.17
2022-11-11T22:04:00.888Z,9.13
2022-11-11T22:06:29.690Z,10.03
2022-11-11T22:08:59.175Z,9.07
2022-11-11T22:11:30.702Z,9.40
2022-11-11T22:13:59.704Z,9.80
2022-11-11T22:16:29.271Z,8.83
2022-11-11T22:18:59.819Z,9.30
2022-11-11T22:21:32.816Z,8.73
2022-11-11T22:24:02.958Z,10.07
2022-11-11T22:26:35.281Z,9.57
2022-11-11T22:29:03.961Z,10.20
2022-11-11T22:31:34.617Z,9.20
2022-11-11T22:34:05.018Z,9.23
2022-11-11T22:36:34.306Z,8.63
2022-11-11T22:39:02.730Z,8.30
2022-11-11T22:41:34.436Z,9.50
2022-11-11T22:44:02.744Z,8.47
2022-11-11T22:46:32.410Z,8.87
2022-11-11T22:49:02.230Z,9.27
2022-11-11T22:51:32.917Z,8.70
2022-11-11T22:54:03.174Z,9.60
2022-11-11T22:56:33.790Z,8.57
2022-11-11T22:59:04.057Z,8.30
2022-11-11T23:01:33.852Z,8.40
2022-11-11T23:04:04.446Z,10.53
2022-11-11T23:06:35.767Z,9.30
2022-11-11T23:09:05.172Z,8.37
2022-11-11T23:11:37.076Z,7.63
2022-11-11T23:14:07.313Z,10.93
2022-11-11T23:16:35.928Z,9.57
2022-11-11T23:19:05.062Z,8.73
2022-11-11T23:21:33.721Z,8.30
2022-11-11T23:24:01.904Z,9.57
2022-11-11T23:26:32.094Z,9.07
2022-11-11T23:29:01.823Z,8.47
2022-11-11T23:31:31.244Z,8.93
2022-11-11T23:34:01.255Z,10.87
2022-11-11T23:36:33.467Z,10.93
2022-11-11T23:39:01.649Z,8.03
2022-11-11T23:41:30.026Z,9.47
2022-11-11T23:43:58.213Z,7.13
2022-11-11T23:46:27.670Z,9.70
2022-11-11T23:48:55.751Z,8.53
2022-11-11T23:51:23.860Z,8.00
2022-11-11T23:53:51.887Z,8.63
2022-11-11T23:56:20.088Z,8.53
2022-11-11T23:58:48.196Z,8.60
